sensor_id;sensor_type;location;lat;lon;timestamp;temperature;humidity
16384;DHT22;8301;51.440;6.610;2023-07-29T00:01:42;18.40;99.90
16384;DHT22;8301;51.440;6.610;2023-07-29T00:04:09;18.40;99.90
16384;DHT22;8301;51.440;6.610;2023-07-29T00:06:36;18.40;99.90
16384;DHT22;8301;51.440;6.610;2023-07-29T00:09:15;18.50;99.90
16384;DHT22;8301;51.440;6.610;2023-07-29T00:11:42;18.50;99.90
16384;DHT22;8301;51.440;6.610;2023-07-29T00:14:09;18.50;99.90
16384;DHT22;8301;51.440;6.610;2023-07-29T00:16:36;18.50;99.90
16384;DHT22;8301;51.440;6.610;2023-07-29T00:19:02;18.50;99.90
16384;DHT22;8301;51.440;6.610;2023-07-29T00:21:30;18.60;99.90
16384;DHT22;8301;51.440;6.610;2023-07-29T00:23:57;18.70;99.90
16384;DHT22;8301;51.440;6.610;2023-07-29T00:26:25;18.70;99.90
16384;DHT22;8301;51.440;6.610;2023-07-29T00:28:53;18.70;99.90
16384;DHT22;8301;51.440;6.610;2023-07-29T00:31:20;18.70;99.90
16384;DHT22;8301;51.440;6.610;2023-07-29T00:33:47;18.70;99.90
16384;DHT22;8301;51.440;6.610;2023-07-29T00:36:14;18.70;99.90
16384;DHT22;8301;51.440;6.610;2023-07-29T00:38:43;18.70;99.90
16384;DHT22;8301;51.440;6.610;2023-07-29T00:41:09;18.70;99.90
16384;DHT22;8301;51.440;6.610;2023-07-29T00:43:39;18.70;99.90
16384;DHT22;8301;51.440;6.610;2023-07-29T00:46:06;18.70;99.90
16384;DHT22;8301;51.440;6.610;2023-07-29T00:48:33;18.70;99.90
16384;DHT22;8301;51.440;6.610;2023-07-29T00:51:00;18.70;99.90
16384;DHT22;8301;51.440;6.610;2023-07-29T00:53:29;18.70;99.90
16384;DHT22;8301;51.440;6.610;2023-07-29T00:55:59;18.70;99.90
16384;DHT22;8301;51.440;6.610;2023-07-29T00:58:26;18.70;99.90
16384;DHT22;8301;51.440;6.610;2023-07-29T01:00:53;18.70;99.90
16384;DHT22;8301;51.440;6.610;2023-07-29T01:03:38;18.70;99.90
16384;DHT22;8301;51.440;6.610;2023-07-29T01:06:12;18.70;99.90
16384;DHT22;8301;51.440;6.610;2023-07-29T01:08:50;18.70;99.90
16384;DHT22;8301;51.440;6.610;2023-07-29T01:13:44;18.80;99.90
16384;DHT22;8301;51.440;6.610;2023-07-29T01:16:20;18.80;99.90
16384;DHT22;8301;51.440;6.610;2023-07-29T01:18:47;18.80;99.90
16384;DHT22;8301;51.440;6.610;2023-07-29T01:21:14;18.80;99.90
16384;DHT22;8301;51.440;6.610;2023-07-29T01:23:42;18.80;99.90
16384;DHT22;8301;51.440;6.610;2023-07-29T01:26:10;18.80;99.90
16384;DHT22;8301;51.440;6.610;2023-07-29T01:28:36;18.80;99.90
16384;DHT22;8301;51.440;6.610;2023-07-29T01:33:58;18.80;99.90
16384;DHT22;8301;51.440;6.610;2023-07-29T01:36:20;18.80;99.90
16384;DHT22;8301;51.440;6.610;2023-07-29T01:38:49;18.80;99.90
16384;DHT22;8301;51.440;6.610;2023-07-29T01:41:17;18.70;99.90
16384;DHT22;8301;51.440;6.610;2023-07-29T01:43:51;18.70;99.90
16384;DHT22;8301;51.440;6.610;2023-07-29T01:46:19;18.70;99.90
16384;DHT22;8301;51.440;6.610;2023-07-29T01:48:47;18.70;99.90
16384;DHT22;8301;51.440;6.610;2023-07-29T01:51:13;18.80;99.90
16384;DHT22;8301;51.440;6.610;2023-07-29T01:53:40;18.80;99.90
16384;DHT22;8301;51.440;6.610;2023-07-29T01:56:07;18.80;99.90
16384;DHT22;8301;51.440;6.610;2023-07-29T01:58:40;18.80;99.90
16384;DHT22;8301;51.440;6.610;2023-07-29T02:01:07;18.80;99.90
16384;DHT22;8301;51.440;6.610;2023-07-29T02:03:34;18.80;99.90
16384;DHT22;8301;51.440;6.610;2023-07-29T02:06:00;18.80;99.90
16384;DHT22;8301;51.440;6.610;2023-07-29T02:08:27;18.90;99.90
16384;DHT22;8301;51.440;6.610;2023-07-29T02:10:54;18.80;99.90
16384;DHT22;8301;51.440;6.610;2023-07-29T02:13:21;18.80;99.90
16384;DHT22;8301;51.440;6.610;2023-07-29T02:15:48;18.90;99.90
16384;DHT22;8301;51.440;6.610;2023-07-29T02:18:14;18.90;99.90
16384;DHT22;8301;51.440;6.610;2023-07-29T02:20:41;18.90;99.90
16384;DHT22;8301;51.440;6.610;2023-07-29T02:23:10;18.90;99.90
16384;DHT22;8301;51.440;6.610;2023-07-29T02:25:36;18.90;99.90
16384;DHT22;8301;51.440;6.610;2023-07-29T02:28:03;18.80;99.90
16384;DHT22;8301;51.440;6.610;2023-07-29T02:30:30;18.90;99.90
16384;DHT22;8301;51.440;6.610;2023-07-29T02:32:57;18.90;99.90
16384;DHT22;8301;51.440;6.610;2023-07-29T02:35:25;18.90;99.90
16384;DHT22;8301;51.440;6.610;2023-07-29T02:37:52;18.90;99.90
16384;DHT22;8301;51.440;6.610;2023-07-29T02:40:19;18.90;99.90
16384;DHT22;8301;51.440;6.610;2023-07-29T02:42:47;18.90;99.90
16384;DHT22;8301;51.440;6.610;2023-07-29T02:45:14;18.90;99.90
16384;DHT22;8301;51.440;6.610;2023-07-29T02:47:41;18.90;99.90
16384;DHT22;8301;51.440;6.610;2023-07-29T02:50:08;18.90;99.90
16384;DHT22;8301;51.440;6.610;2023-07-29T02:52:35;18.90;99.90
16384;DHT22;8301;51.440;6.610;2023-07-29T02:55:02;18.80;99.90
16384;DHT22;8301;51.440;6.610;2023-07-29T02:57:29;18.80;99.90
16384;DHT22;8301;51.440;6.610;2023-07-29T02:59:56;18.80;99.90
16384;DHT22;8301;51.440;6.610;2023-07-29T03:02:23;18.70;99.90
16384;DHT22;8301;51.440;6.610;2023-07-29T03:04:49;18.70;99.90
16384;DHT22;8301;51.440;6.610;2023-07-29T03:07:16;18.70;99.90
16384;DHT22;8301;51.440;6.610;2023-07-29T03:09:43;18.70;99.90
16384;DHT22;8301;51.440;6.610;2023-07-29T03:12:10;18.70;99.90
16384;DHT22;8301;51.440;6.610;2023-07-29T03:14:37;18.70;99.90
16384;DHT22;8301;51.440;6.610;2023-07-29T03:17:04;18.70;99.90
16384;DHT22;8301;51.440;6.610;2023-07-29T03:19:32;18.70;99.90
16384;DHT22;8301;51.440;6.610;2023-07-29T03:21:59;18.70;99.90
16384;DHT22;8301;51.440;6.610;2023-07-29T03:24:26;18.70;99.90
16384;DHT22;8301;51.440;6.610;2023-07-29T03:26:53;18.70;99.90
16384;DHT22;8301;51.440;6.610;2023-07-29T03:29:20;18.50;99.90
16384;DHT22;8301;51.440;6.610;2023-07-29T03:31:46;18.50;99.90
16384;DHT22;8301;51.440;6.610;2023-07-29T03:34:13;18.50;99.90
16384;DHT22;8301;51.440;6.610;2023-07-29T03:36:40;18.50;99.90
16384;DHT22;8301;51.440;6.610;2023-07-29T03:39:07;18.40;99.90
16384;DHT22;8301;51.440;6.610;2023-07-29T03:41:34;18.40;99.90
16384;DHT22;8301;51.440;6.610;2023-07-29T03:44:01;18.40;99.90
16384;DHT22;8301;51.440;6.610;2023-07-29T03:46:28;18.40;99.90
16384;DHT22;8301;51.440;6.610;2023-07-29T03:48:55;18.30;99.90
16384;DHT22;8301;51.440;6.610;2023-07-29T03:51:22;18.30;99.90
16384;DHT22;8301;51.440;6.610;2023-07-29T03:53:50;18.30;99.90
16384;DHT22;8301;51.440;6.610;2023-07-29T03:56:17;18.20;99.90
16384;DHT22;8301;51.440;6.610;2023-07-29T03:58:45;18.20;99.90
16384;DHT22;8301;51.440;6.610;2023-07-29T04:01:12;18.20;99.90
16384;DHT22;8301;51.440;6.610;2023-07-29T04:03:39;18.20;99.90
16384;DHT22;8301;51.440;6.610;2023-07-29T04:06:06;18.20;99.90
16384;DHT22;8301;51.440;6.610;2023-07-29T04:08:33;18.20;99.90
16384;DHT22;8301;51.440;6.610;2023-07-29T04:11:00;18.10;99.90
16384;DHT22;8301;51.440;6.610;2023-07-29T04:13:26;18.10;99.90
16384;DHT22;8301;51.440;6.610;2023-07-29T04:15:53;18.10;99.90
16384;DHT22;8301;51.440;6.610;2023-07-29T04:18:20;18.10;99.90
16384;DHT22;8301;51.440;6.610;2023-07-29T04:20:47;18.00;99.90
16384;DHT22;8301;51.440;6.610;2023-07-29T04:23:14;18.00;99.90
16384;DHT22;8301;51.440;6.610;2023-07-29T04:25:41;18.00;99.90
16384;DHT22;8301;51.440;6.610;2023-07-29T04:28:07;18.00;99.90
16384;DHT22;8301;51.440;6.610;2023-07-29T04:30:34;18.00;99.90
16384;DHT22;8301;51.440;6.610;2023-07-29T04:33:01;18.00;99.90
16384;DHT22;8301;51.440;6.610;2023-07-29T04:35:31;18.10;99.90
16384;DHT22;8301;51.440;6.610;2023-07-29T04:37:58;18.00;99.90
16384;DHT22;8301;51.440;6.610;2023-07-29T04:40:25;17.90;99.90
16384;DHT22;8301;51.440;6.610;2023-07-29T04:42:52;17.90;99.90
16384;DHT22;8301;51.440;6.610;2023-07-29T04:45:18;17.80;99.90
16384;DHT22;8301;51.440;6.610;2023-07-29T04:47:46;17.80;99.90
16384;DHT22;8301;51.440;6.610;2023-07-29T04:50:13;17.80;99.90
16384;DHT22;8301;51.440;6.610;2023-07-29T04:52:39;17.80;99.90
16384;DHT22;8301;51.440;6.610;2023-07-29T04:55:06;17.80;99.90
16384;DHT22;8301;51.440;6.610;2023-07-29T04:57:33;17.80;99.90
16384;DHT22;8301;51.440;6.610;2023-07-29T05:00:00;17.80;99.90
16384;DHT22;8301;51.440;6.610;2023-07-29T05:02:27;17.80;99.90
16384;DHT22;8301;51.440;6.610;2023-07-29T05:04:54;17.70;99.90
16384;DHT22;8301;51.440;6.610;2023-07-29T05:07:22;17.70;99.90
16384;DHT22;8301;51.440;6.610;2023-07-29T05:09:48;17.70;99.90
16384;DHT22;8301;51.440;6.610;2023-07-29T05:12:15;17.60;99.90
16384;DHT22;8301;51.440;6.610;2023-07-29T05:14:42;17.60;99.90
16384;DHT22;8301;51.440;6.610;2023-07-29T05:17:10;17.60;99.90
16384;DHT22;8301;51.440;6.610;2023-07-29T05:19:37;17.60;99.90
16384;DHT22;8301;51.440;6.610;2023-07-29T05:22:03;17.70;99.90
16384;DHT22;8301;51.440;6.610;2023-07-29T05:24:30;17.70;99.90
16384;DHT22;8301;51.440;6.610;2023-07-29T05:26:57;17.60;99.90
16384;DHT22;8301;51.440;6.610;2023-07-29T05:29:24;17.60;99.90
16384;DHT22;8301;51.440;6.610;2023-07-29T05:31:51;17.70;99.90
16384;DHT22;8301;51.440;6.610;2023-07-29T05:34:17;17.70;99.90
16384;DHT22;8301;51.440;6.610;2023-07-29T05:36:44;17.70;99.90
16384;DHT22;8301;51.440;6.610;2023-07-29T05:39:11;17.70;99.90
16384;DHT22;8301;51.440;6.610;2023-07-29T05:41:38;17.60;99.90
16384;DHT22;8301;51.440;6.610;2023-07-29T05:44:05;17.60;99.90
16384;DHT22;8301;51.440;6.610;2023-07-29T05:46:33;17.60;99.90
16384;DHT22;8301;51.440;6.610;2023-07-29T05:49:00;17.70;99.90
16384;DHT22;8301;51.440;6.610;2023-07-29T05:51:27;17.60;99.90
16384;DHT22;8301;51.440;6.610;2023-07-29T05:53:54;17.60;99.90
16384;DHT22;8301;51.440;6.610;2023-07-29T05:56:21;17.60;99.90
16384;DHT22;8301;51.440;6.610;2023-07-29T05:58:48;17.50;99.90
16384;DHT22;8301;51.440;6.610;2023-07-29T06:01:15;17.50;99.90
16384;DHT22;8301;51.440;6.610;2023-07-29T06:03:42;17.50;99.90
16384;DHT22;8301;51.440;6.610;2023-07-29T06:06:09;17.50;99.90
16384;DHT22;8301;51.440;6.610;2023-07-29T06:08:36;17.50;99.90
16384;DHT22;8301;51.440;6.610;2023-07-29T06:11:02;17.50;99.90
16384;DHT22;8301;51.440;6.610;2023-07-29T06:13:31;17.60;99.90
16384;DHT22;8301;51.440;6.610;2023-07-29T06:15:58;17.70;99.90
16384;DHT22;8301;51.440;6.610;2023-07-29T06:18:25;17.70;99.90
16384;DHT22;8301;51.440;6.610;2023-07-29T06:20:52;17.70;99.90
16384;DHT22;8301;51.440;6.610;2023-07-29T06:23:19;17.70;99.90
16384;DHT22;8301;51.440;6.610;2023-07-29T06:25:46;17.70;99.90
16384;DHT22;8301;51.440;6.610;2023-07-29T06:28:13;17.60;99.90
16384;DHT22;8301;51.440;6.610;2023-07-29T06:30:42;17.60;99.90
16384;DHT22;8301;51.440;6.610;2023-07-29T06:33:09;17.50;99.90
16384;DHT22;8301;51.440;6.610;2023-07-29T06:35:36;17.60;99.90
16384;DHT22;8301;51.440;6.610;2023-07-29T06:38:03;17.50;99.90
16384;DHT22;8301;51.440;6.610;2023-07-29T06:40:30;17.60;99.90
16384;DHT22;8301;51.440;6.610;2023-07-29T06:42:57;17.70;99.90
16384;DHT22;8301;51.440;6.610;2023-07-29T06:45:24;17.70;99.90
16384;DHT22;8301;51.440;6.610;2023-07-29T06:47:51;17.70;99.90
16384;DHT22;8301;51.440;6.610;2023-07-29T06:50:17;17.60;99.90
16384;DHT22;8301;51.440;6.610;2023-07-29T06:52:44;17.60;99.90
16384;DHT22;8301;51.440;6.610;2023-07-29T06:55:11;17.70;99.90
16384;DHT22;8301;51.440;6.610;2023-07-29T06:57:38;17.90;99.90
16384;DHT22;8301;51.440;6.610;2023-07-29T07:00:05;17.90;99.90
16384;DHT22;8301;51.440;6.610;2023-07-29T07:02:33;18.10;99.90
16384;DHT22;8301;51.440;6.610;2023-07-29T07:05:00;18.30;99.90
16384;DHT22;8301;51.440;6.610;2023-07-29T07:07:27;18.30;99.90
16384;DHT22;8301;51.440;6.610;2023-07-29T07:09:54;18.40;99.90
16384;DHT22;8301;51.440;6.610;2023-07-29T07:12:20;18.50;99.90
16384;DHT22;8301;51.440;6.610;2023-07-29T07:14:47;18.60;99.90
16384;DHT22;8301;51.440;6.610;2023-07-29T07:17:15;18.70;99.90
16384;DHT22;8301;51.440;6.610;2023-07-29T07:19:42;18.50;99.90
16384;DHT22;8301;51.440;6.610;2023-07-29T07:22:09;18.50;99.90
16384;DHT22;8301;51.440;6.610;2023-07-29T07:24:36;18.40;99.90
16384;DHT22;8301;51.440;6.610;2023-07-29T07:27:03;18.50;99.90
16384;DHT22;8301;51.440;6.610;2023-07-29T07:29:29;18.60;99.90
16384;DHT22;8301;51.440;6.610;2023-07-29T07:31:57;18.80;99.90
16384;DHT22;8301;51.440;6.610;2023-07-29T07:34:24;18.90;99.90
16384;DHT22;8301;51.440;6.610;2023-07-29T07:36:51;19.00;99.90
16384;DHT22;8301;51.440;6.610;2023-07-29T07:39:18;19.20;99.90
16384;DHT22;8301;51.440;6.610;2023-07-29T07:41:45;19.40;99.90
16384;DHT22;8301;51.440;6.610;2023-07-29T07:44:12;19.50;99.90
16384;DHT22;8301;51.440;6.610;2023-07-29T07:46:41;19.50;99.90
16384;DHT22;8301;51.440;6.610;2023-07-29T07:49:09;19.70;99.90
16384;DHT22;8301;51.440;6.610;2023-07-29T07:51:35;19.70;99.90
16384;DHT22;8301;51.440;6.610;2023-07-29T07:54:02;19.70;99.90
16384;DHT22;8301;51.440;6.610;2023-07-29T07:56:29;19.70;99.90
16384;DHT22;8301;51.440;6.610;2023-07-29T07:58:56;19.60;99.90
16384;DHT22;8301;51.440;6.610;2023-07-29T08:01:23;19.70;99.90
16384;DHT22;8301;51.440;6.610;2023-07-29T08:03:50;19.90;99.90
16384;DHT22;8301;51.440;6.610;2023-07-29T08:06:16;19.90;99.90
16384;DHT22;8301;51.440;6.610;2023-07-29T08:08:44;20.00;99.90
16384;DHT22;8301;51.440;6.610;2023-07-29T08:11:11;19.90;1.00
16384;DHT22;8301;51.440;6.610;2023-07-29T08:13:38;20.00;99.90
16384;DHT22;8301;51.440;6.610;2023-07-29T08:16:06;20.00;1.00
16384;DHT22;8301;51.440;6.610;2023-07-29T08:18:32;20.10;1.00
16384;DHT22;8301;51.440;6.610;2023-07-29T08:20:59;20.30;1.00
16384;DHT22;8301;51.440;6.610;2023-07-29T08:23:29;20.30;1.00
16384;DHT22;8301;51.440;6.610;2023-07-29T08:26:00;20.10;1.00
16384;DHT22;8301;51.440;6.610;2023-07-29T08:28:34;20.10;99.90
16384;DHT22;8301;51.440;6.610;2023-07-29T08:31:01;20.20;1.00
16384;DHT22;8301;51.440;6.610;2023-07-29T08:33:28;20.40;99.90
16384;DHT22;8301;51.440;6.610;2023-07-29T08:35:55;20.60;1.00
16384;DHT22;8301;51.440;6.610;2023-07-29T08:38:22;20.80;99.90
16384;DHT22;8301;51.440;6.610;2023-07-29T08:43:28;21.00;99.90
16384;DHT22;8301;51.440;6.610;2023-07-29T08:45:55;21.00;81.10
16384;DHT22;8301;51.440;6.610;2023-07-29T08:48:23;20.90;99.90
16384;DHT22;8301;51.440;6.610;2023-07-29T08:50:50;21.10;99.90
16384;DHT22;8301;51.440;6.610;2023-07-29T08:53:18;21.30;99.90
16384;DHT22;8301;51.440;6.610;2023-07-29T08:55:45;21.20;99.90
16384;DHT22;8301;51.440;6.610;2023-07-29T08:58:12;21.30;99.90
16384;DHT22;8301;51.440;6.610;2023-07-29T09:00:40;21.00;99.90
16384;DHT22;8301;51.440;6.610;2023-07-29T09:03:08;20.70;99.90
16384;DHT22;8301;51.440;6.610;2023-07-29T09:05:35;20.80;99.90
16384;DHT22;8301;51.440;6.610;2023-07-29T09:08:02;20.80;99.90
16384;DHT22;8301;51.440;6.610;2023-07-29T09:10:29;20.80;99.90
16384;DHT22;8301;51.440;6.610;2023-07-29T09:12:56;20.70;99.90
16384;DHT22;8301;51.440;6.610;2023-07-29T09:15:30;20.50;99.90
16384;DHT22;8301;51.440;6.610;2023-07-29T09:17:55;20.30;99.90
16384;DHT22;8301;51.440;6.610;2023-07-29T09:20:30;20.20;99.90
16384;DHT22;8301;51.440;6.610;2023-07-29T09:22:57;20.10;1.00
16384;DHT22;8301;51.440;6.610;2023-07-29T09:25:24;20.10;1.00
16384;DHT22;8301;51.440;6.610;2023-07-29T09:27:52;20.10;1.00
16384;DHT22;8301;51.440;6.610;2023-07-29T09:30:19;20.10;1.00
16384;DHT22;8301;51.440;6.610;2023-07-29T09:32:46;20.10;1.00
16384;DHT22;8301;51.440;6.610;2023-07-29T09:35:14;20.20;1.00
16384;DHT22;8301;51.440;6.610;2023-07-29T09:37:41;20.40;1.00
16384;DHT22;8301;51.440;6.610;2023-07-29T09:40:12;20.50;99.90
16384;DHT22;8301;51.440;6.610;2023-07-29T09:42:36;20.50;99.90
16384;DHT22;8301;51.440;6.610;2023-07-29T09:45:04;20.70;99.90
16384;DHT22;8301;51.440;6.610;2023-07-29T09:47:32;20.80;99.90
16384;DHT22;8301;51.440;6.610;2023-07-29T09:49:59;21.20;99.90
16384;DHT22;8301;51.440;6.610;2023-07-29T09:52:26;21.40;99.90
16384;DHT22;8301;51.440;6.610;2023-07-29T09:54:54;21.50;99.90
16384;DHT22;8301;51.440;6.610;2023-07-29T09:57:21;21.60;46.70
16384;DHT22;8301;51.440;6.610;2023-07-29T09:59:55;21.60;1.00
16384;DHT22;8301;51.440;6.610;2023-07-29T10:02:22;21.70;1.00
16384;DHT22;8301;51.440;6.610;2023-07-29T10:04:56;21.70;1.00
16384;DHT22;8301;51.440;6.610;2023-07-29T10:07:25;21.90;1.00
16384;DHT22;8301;51.440;6.610;2023-07-29T10:09:52;22.10;1.00
16384;DHT22;8301;51.440;6.610;2023-07-29T10:12:20;22.50;1.00
16384;DHT22;8301;51.440;6.610;2023-07-29T10:14:48;22.90;1.00
16384;DHT22;8301;51.440;6.610;2023-07-29T10:17:15;22.80;1.00
16384;DHT22;8301;51.440;6.610;2023-07-29T10:19:43;22.70;1.00
16384;DHT22;8301;51.440;6.610;2023-07-29T10:22:10;22.60;1.00
16384;DHT22;8301;51.440;6.610;2023-07-29T10:24:38;22.70;1.00
16384;DHT22;8301;51.440;6.610;2023-07-29T10:27:07;22.60;1.00
16384;DHT22;8301;51.440;6.610;2023-07-29T10:29:37;22.70;1.00
16384;DHT22;8301;51.440;6.610;2023-07-29T10:32:05;22.70;1.00
16384;DHT22;8301;51.440;6.610;2023-07-29T10:34:33;22.80;1.00
16384;DHT22;8301;51.440;6.610;2023-07-29T10:37:01;22.60;1.00
16384;DHT22;8301;51.440;6.610;2023-07-29T10:39:32;22.80;1.00
16384;DHT22;8301;51.440;6.610;2023-07-29T10:41:57;23.30;1.00
16384;DHT22;8301;51.440;6.610;2023-07-29T10:47:15;23.40;1.00
16384;DHT22;8301;51.440;6.610;2023-07-29T10:49:45;23.60;1.00
16384;DHT22;8301;51.440;6.610;2023-07-29T10:52:28;23.10;1.00
16384;DHT22;8301;51.440;6.610;2023-07-29T10:54:47;22.70;1.00
16384;DHT22;8301;51.440;6.610;2023-07-29T10:57:15;22.50;1.00
16384;DHT22;8301;51.440;6.610;2023-07-29T10:59:53;22.70;1.00
16384;DHT22;8301;51.440;6.610;2023-07-29T11:02:17;22.70;1.00
16384;DHT22;8301;51.440;6.610;2023-07-29T11:04:49;22.80;1.00
16384;DHT22;8301;51.440;6.610;2023-07-29T11:15:03;22.30;1.00
16384;DHT22;8301;51.440;6.610;2023-07-29T11:17:33;22.20;1.00
16384;DHT22;8301;51.440;6.610;2023-07-29T11:20:03;22.20;1.00
16384;DHT22;8301;51.440;6.610;2023-07-29T11:22:30;22.10;1.00
16384;DHT22;8301;51.440;6.610;2023-07-29T11:24:57;22.20;1.00
16384;DHT22;8301;51.440;6.610;2023-07-29T11:27:24;22.20;1.00
16384;DHT22;8301;51.440;6.610;2023-07-29T11:29:55;22.60;1.00
16384;DHT22;8301;51.440;6.610;2023-07-29T11:32:19;22.70;1.00
16384;DHT22;8301;51.440;6.610;2023-07-29T11:34:46;22.50;1.00
16384;DHT22;8301;51.440;6.610;2023-07-29T11:37:12;22.50;1.00
16384;DHT22;8301;51.440;6.610;2023-07-29T11:39:40;22.90;1.00
16384;DHT22;8301;51.440;6.610;2023-07-29T11:42:07;23.10;1.00
16384;DHT22;8301;51.440;6.610;2023-07-29T11:44:35;23.30;1.00
16384;DHT22;8301;51.440;6.610;2023-07-29T11:47:05;23.40;1.00
16384;DHT22;8301;51.440;6.610;2023-07-29T11:49:32;23.20;1.00
16384;DHT22;8301;51.440;6.610;2023-07-29T11:52:02;23.30;1.00
16384;DHT22;8301;51.440;6.610;2023-07-29T11:54:29;23.30;1.00
16384;DHT22;8301;51.440;6.610;2023-07-29T11:56:56;23.40;1.00
16384;DHT22;8301;51.440;6.610;2023-07-29T11:59:23;23.30;1.00
16384;DHT22;8301;51.440;6.610;2023-07-29T12:01:50;23.40;1.00
16384;DHT22;8301;51.440;6.610;2023-07-29T12:04:17;23.50;1.00
16384;DHT22;8301;51.440;6.610;2023-07-29T12:06:43;23.10;1.00
16384;DHT22;8301;51.440;6.610;2023-07-29T12:09:10;23.20;1.00
16384;DHT22;8301;51.440;6.610;2023-07-29T12:11:39;22.80;1.00
16384;DHT22;8301;51.440;6.610;2023-07-29T12:14:11;22.70;1.00
16384;DHT22;8301;51.440;6.610;2023-07-29T12:16:41;23.10;1.00
16384;DHT22;8301;51.440;6.610;2023-07-29T12:19:08;23.10;1.00
16384;DHT22;8301;51.440;6.610;2023-07-29T12:21:34;23.00;1.00
16384;DHT22;8301;51.440;6.610;2023-07-29T12:24:02;23.00;1.00
16384;DHT22;8301;51.440;6.610;2023-07-29T12:26:29;22.90;1.00
16384;DHT22;8301;51.440;6.610;2023-07-29T12:31:46;23.40;1.00
16384;DHT22;8301;51.440;6.610;2023-07-29T12:34:19;23.50;1.00
16384;DHT22;8301;51.440;6.610;2023-07-29T12:36:49;24.00;1.00
16384;DHT22;8301;51.440;6.610;2023-07-29T12:39:19;24.00;1.00
16384;DHT22;8301;51.440;6.610;2023-07-29T12:41:50;23.70;1.00
16384;DHT22;8301;51.440;6.610;2023-07-29T12:44:22;23.60;1.00
16384;DHT22;8301;51.440;6.610;2023-07-29T12:46:49;23.40;1.00
16384;DHT22;8301;51.440;6.610;2023-07-29T12:51:48;24.00;1.00
16384;DHT22;8301;51.440;6.610;2023-07-29T12:54:15;23.80;1.00
16384;DHT22;8301;51.440;6.610;2023-07-29T12:56:42;24.20;1.00
16384;DHT22;8301;51.440;6.610;2023-07-29T12:59:08;24.40;1.00
16384;DHT22;8301;51.440;6.610;2023-07-29T13:01:35;24.00;1.00
16384;DHT22;8301;51.440;6.610;2023-07-29T13:04:02;23.80;1.00
16384;DHT22;8301;51.440;6.610;2023-07-29T13:06:32;23.70;1.00
16384;DHT22;8301;51.440;6.610;2023-07-29T13:08:59;23.50;1.00
16384;DHT22;8301;51.440;6.610;2023-07-29T13:11:26;23.50;1.00
16384;DHT22;8301;51.440;6.610;2023-07-29T13:13:53;23.40;1.00
16384;DHT22;8301;51.440;6.610;2023-07-29T13:16:20;23.20;1.00
16384;DHT22;8301;51.440;6.610;2023-07-29T13:18:46;23.00;1.00
16384;DHT22;8301;51.440;6.610;2023-07-29T13:21:13;23.00;1.00
16384;DHT22;8301;51.440;6.610;2023-07-29T13:23:40;22.70;1.00
16384;DHT22;8301;51.440;6.610;2023-07-29T13:28:42;22.30;8.10
16384;DHT22;8301;51.440;6.610;2023-07-29T13:31:09;22.20;98.30
16384;DHT22;8301;51.440;6.610;2023-07-29T13:33:37;22.00;99.90
16384;DHT22;8301;51.440;6.610;2023-07-29T13:36:05;21.70;99.90
16384;DHT22;8301;51.440;6.610;2023-07-29T13:38:34;21.60;99.90
16384;DHT22;8301;51.440;6.610;2023-07-29T13:41:01;21.40;99.90
16384;DHT22;8301;51.440;6.610;2023-07-29T13:43:28;21.10;1.00
16384;DHT22;8301;51.440;6.610;2023-07-29T13:45:55;20.70;99.90
16384;DHT22;8301;51.440;6.610;2023-07-29T13:48:21;20.20;1.00
16384;DHT22;8301;51.440;6.610;2023-07-29T13:50:56;20.10;1.00
16384;DHT22;8301;51.440;6.610;2023-07-29T13:53:23;19.90;99.90
16384;DHT22;8301;51.440;6.610;2023-07-29T13:55:51;19.60;99.90
16384;DHT22;8301;51.440;6.610;2023-07-29T13:58:18;19.40;99.90
16384;DHT22;8301;51.440;6.610;2023-07-29T14:00:45;19.40;99.90
16384;DHT22;8301;51.440;6.610;2023-07-29T14:03:12;19.50;99.90
16384;DHT22;8301;51.440;6.610;2023-07-29T14:05:39;19.70;1.00
16384;DHT22;8301;51.440;6.610;2023-07-29T14:08:05;19.90;99.90
16384;DHT22;8301;51.440;6.610;2023-07-29T14:10:32;20.20;99.90
16384;DHT22;8301;51.440;6.610;2023-07-29T14:12:59;20.60;99.90
16384;DHT22;8301;51.440;6.610;2023-07-29T14:15:26;20.80;99.90
16384;DHT22;8301;51.440;6.610;2023-07-29T14:17:55;21.00;99.90
16384;DHT22;8301;51.440;6.610;2023-07-29T14:20:21;21.40;99.90
16384;DHT22;8301;51.440;6.610;2023-07-29T14:22:48;21.60;99.90
16384;DHT22;8301;51.440;6.610;2023-07-29T14:25:17;21.90;1.00
16384;DHT22;8301;51.440;6.610;2023-07-29T14:27:44;21.90;1.00
16384;DHT22;8301;51.440;6.610;2023-07-29T14:30:11;21.90;1.00
16384;DHT22;8301;51.440;6.610;2023-07-29T14:32:38;21.80;1.00
16384;DHT22;8301;51.440;6.610;2023-07-29T14:35:04;22.00;99.90
16384;DHT22;8301;51.440;6.610;2023-07-29T14:37:33;21.80;1.00
16384;DHT22;8301;51.440;6.610;2023-07-29T14:40:01;21.80;1.00
16384;DHT22;8301;51.440;6.610;2023-07-29T14:42:28;21.50;1.00
16384;DHT22;8301;51.440;6.610;2023-07-29T14:44:55;21.50;71.20
16384;DHT22;8301;51.440;6.610;2023-07-29T14:47:40;21.40;1.00
16384;DHT22;8301;51.440;6.610;2023-07-29T14:50:08;21.20;99.90
16384;DHT22;8301;51.440;6.610;2023-07-29T14:52:40;21.10;1.00
16384;DHT22;8301;51.440;6.610;2023-07-29T14:55:07;20.70;99.90
16384;DHT22;8301;51.440;6.610;2023-07-29T14:57:33;20.80;99.90
16384;DHT22;8301;51.440;6.610;2023-07-29T15:00:02;20.70;30.20
16384;DHT22;8301;51.440;6.610;2023-07-29T15:02:42;20.80;1.00
16384;DHT22;8301;51.440;6.610;2023-07-29T15:05:09;20.90;12.80
16384;DHT22;8301;51.440;6.610;2023-07-29T15:07:36;21.00;99.90
16384;DHT22;8301;51.440;6.610;2023-07-29T15:10:03;20.80;1.00
16384;DHT22;8301;51.440;6.610;2023-07-29T15:12:30;20.80;99.90
16384;DHT22;8301;51.440;6.610;2023-07-29T15:14:56;20.70;99.90
16384;DHT22;8301;51.440;6.610;2023-07-29T15:17:29;20.50;99.90
16384;DHT22;8301;51.440;6.610;2023-07-29T15:19:55;20.60;99.90
16384;DHT22;8301;51.440;6.610;2023-07-29T15:22:24;20.50;1.00
16384;DHT22;8301;51.440;6.610;2023-07-29T15:24:51;20.80;99.90
16384;DHT22;8301;51.440;6.610;2023-07-29T15:27:17;21.00;99.90
16384;DHT22;8301;51.440;6.610;2023-07-29T15:29:44;21.10;1.00
16384;DHT22;8301;51.440;6.610;2023-07-29T15:32:11;21.30;99.90
16384;DHT22;8301;51.440;6.610;2023-07-29T15:34:38;21.60;97.70
16384;DHT22;8301;51.440;6.610;2023-07-29T15:37:05;21.30;1.00
16384;DHT22;8301;51.440;6.610;2023-07-29T15:39:31;21.20;1.00
16384;DHT22;8301;51.440;6.610;2023-07-29T15:41:59;21.20;1.00
16384;DHT22;8301;51.440;6.610;2023-07-29T15:44:26;21.30;1.00
16384;DHT22;8301;51.440;6.610;2023-07-29T15:46:53;21.40;1.00
16384;DHT22;8301;51.440;6.610;2023-07-29T15:49:21;21.60;1.00
16384;DHT22;8301;51.440;6.610;2023-07-29T15:51:48;21.60;99.90
16384;DHT22;8301;51.440;6.610;2023-07-29T15:54:18;21.90;1.00
16384;DHT22;8301;51.440;6.610;2023-07-29T15:56:45;22.00;99.90
16384;DHT22;8301;51.440;6.610;2023-07-29T15:59:12;21.90;99.90
16384;DHT22;8301;51.440;6.610;2023-07-29T16:01:39;21.80;99.90
16384;DHT22;8301;51.440;6.610;2023-07-29T16:04:06;21.90;99.90
16384;DHT22;8301;51.440;6.610;2023-07-29T16:06:33;21.70;99.90
16384;DHT22;8301;51.440;6.610;2023-07-29T16:09:01;21.60;1.00
16384;DHT22;8301;51.440;6.610;2023-07-29T16:11:29;21.50;1.00
16384;DHT22;8301;51.440;6.610;2023-07-29T16:13:56;21.60;1.00
16384;DHT22;8301;51.440;6.610;2023-07-29T16:16:23;21.70;1.00
16384;DHT22;8301;51.440;6.610;2023-07-29T16:18:52;21.80;1.00